Time;durP1;ratioP1;P1;durP2;ratioP2;P2;SDS_P1;SDS_P2;PMS_P1;PMS_P2;Temp;Humidity;BMP_temperature;BMP_pressure;BME280_temperature;BME280_humidity;BME280_pressure;Samples;Min_cycle;Max_cycle;Signal;HPM_P1;HPM_P2
2022/06/02 00:00:05;;;;;;;12.82;9.80;;;8.30;99.90;;;;;;4788863;30;20067;-65
2022/06/02 00:02:52;;;;;;;9.40;8.40;;;8.30;99.90;;;;;;4789842;30;20071;-65
2022/06/02 00:05:22;;;;;;;10.40;9.38;;;8.30;99.90;;;;;;4786701;29;20054;-65
2022/06/02 00:08:09;;;;;;;9.95;8.85;;;8.30;99.90;;;;;;4790075;29;20063;-65
2022/06/02 00:11:10;;;;;;;10.63;9.52;;;8.30;99.90;;;;;;4789849;29;20467;-66
2022/06/02 00:14:08;;;;;;;11.25;9.85;;;8.30;99.90;;;;;;4788068;29;20106;-66
2022/06/02 00:16:50;;;;;;;10.32;8.93;;;8.20;99.90;;;;;;4789159;30;20047;-66
2022/06/02 00:19:25;;;;;;;11.90;10.10;;;8.20;99.90;;;;;;4789992;29;20099;-65
2022/06/02 00:22:00;;;;;;;12.40;9.98;;;8.20;99.90;;;;;;4789892;29;20055;-66
2022/06/02 00:24:39;;;;;;;10.57;9.27;;;8.20;99.90;;;;;;4788910;30;20066;-66
2022/06/02 00:27:15;;;;;;;11.77;9.98;;;8.20;99.90;;;;;;4788977;29;20055;-66
2022/06/02 00:30:23;;;;;;;11.48;10.25;;;8.20;99.90;;;;;;4789800;29;20120;-66
2022/06/02 00:33:09;;;;;;;12.70;10.18;;;8.20;99.90;;;;;;4787673;29;20063;-65
2022/06/02 00:35:42;;;;;;;11.05;9.85;;;8.20;99.90;;;;;;4783983;29;20166;-65
2022/06/02 00:38:38;;;;;;;11.68;10.00;;;8.10;99.90;;;;;;4789389;29;20366;-65
2022/06/02 00:41:34;;;;;;;12.05;9.13;;;8.10;99.90;;;;;;4765621;30;20505;-65
2022/06/02 00:44:10;;;;;;;10.80;9.32;;;8.10;99.90;;;;;;4771989;30;20098;-65
2022/06/02 00:46:36;;;;;;;30.27;11.63;;;8.10;99.90;;;;;;4787493;29;20135;-64
2022/06/02 00:49:09;;;;;;;12.38;8.93;;;8.00;99.90;;;;;;4787829;29;20134;-66
2022/06/02 00:51:44;;;;;;;12.15;9.80;;;8.10;99.90;;;;;;4788508;29;20394;-65
2022/06/02 00:57:32;;;;;;;10.23;9.02;;;8.00;99.90;;;;;;4786205;29;20099;-65
2022/06/02 01:00:29;;;;;;;9.57;8.57;;;8.00;99.90;;;;;;4772850;29;20165;-65
2022/06/02 01:03:13;;;;;;;10.77;9.38;;;7.90;99.90;;;;;;4746741;29;20055;-66
2022/06/02 01:05:45;;;;;;;10.75;8.48;;;7.90;99.90;;;;;;4771617;30;20094;-66
2022/06/02 01:08:13;;;;;;;10.05;8.13;;;7.80;99.90;;;;;;4789136;30;20130;-65
2022/06/02 01:11:16;;;;;;;10.65;7.68;;;7.70;99.90;;;;;;4788370;29;20082;-66
2022/06/02 01:14:03;;;;;;;8.52;7.63;;;7.70;99.90;;;;;;4767985;30;20063;-65
2022/06/02 01:17:04;;;;;;;9.13;7.47;;;7.70;99.90;;;;;;4788419;29;20146;-65
2022/06/02 01:19:38;;;;;;;8.98;7.55;;;7.60;99.90;;;;;;4789547;30;20409;-65
2022/06/02 01:22:16;;;;;;;10.82;9.25;;;7.70;99.90;;;;;;4788428;29;20059;-66
2022/06/02 01:24:50;;;;;;;9.45;8.45;;;7.60;99.90;;;;;;4787325;29;20063;-66
2022/06/02 01:27:53;;;;;;;10.10;9.00;;;7.60;99.90;;;;;;4777949;30;20450;-66
2022/06/02 01:30:33;;;;;;;9.65;8.30;;;7.60;99.90;;;;;;4770996;30;20398;-66
2022/06/02 01:33:16;;;;;;;11.52;10.05;;;7.60;99.90;;;;;;4769930;30;20063;-65
2022/06/02 01:36:04;;;;;;;14.32;10.07;;;7.60;99.90;;;;;;4786176;29;20104;-66
2022/06/02 01:38:47;;;;;;;12.48;9.73;;;7.60;99.90;;;;;;4787970;29;20470;-65
2022/06/02 01:41:39;;;;;;;13.38;10.48;;;7.60;99.90;;;;;;4788284;29;20063;-66
2022/06/02 01:44:19;;;;;;;12.63;10.80;;;7.60;99.90;;;;;;4785970;29;20064;-66
2022/06/02 01:46:46;;;;;;;13.93;11.27;;;7.60;99.90;;;;;;4787834;30;20059;-66
2022/06/02 01:49:21;;;;;;;13.50;9.80;;;7.60;99.90;;;;;;4786828;30;20082;-66
2022/06/02 01:52:04;;;;;;;12.52;11.15;;;8.30;99.90;;;;;;4788126;29;20051;-65
2022/06/02 01:55:03;;;;;;;13.32;10.50;;;7.60;99.90;;;;;;4787636;30;20059;-66
2022/06/02 01:57:55;;;;;;;14.70;11.40;;;7.60;99.90;;;;;;4784950;29;20098;-65
2022/06/02 02:00:23;;;;;;;14.52;10.40;;;7.60;99.90;;;;;;4788100;30;20094;-66
2022/06/02 02:03:14;;;;;;;13.15;10.57;;;7.60;99.90;;;;;;4787410;29;20418;-65
2022/06/02 02:05:51;;;;;;;11.27;9.55;;;7.50;99.90;;;;;;4770185;30;20520;-65
2022/06/02 02:08:35;;;;;;;13.23;10.35;;;7.50;99.90;;;;;;4770213;30;20063;-65
2022/06/02 02:11:35;;;;;;;14.57;10.18;;;7.40;99.90;;;;;;4769103;30;20082;-66
2022/06/02 02:14:21;;;;;;;12.20;10.85;;;7.40;99.90;;;;;;4776285;30;20055;-65
2022/06/02 02:17:25;;;;;;;16.08;12.57;;;7.40;99.90;;;;;;4787144;30;20100;-66
2022/06/02 02:20:16;;;;;;;13.27;11.77;;;7.40;99.90;;;;;;4772944;30;20067;-65
2022/06/02 02:23:05;;;;;;;16.77;13.18;;;7.40;99.90;;;;;;4787769;29;20059;-65
2022/06/02 02:25:57;;;;;;;16.33;13.05;;;7.50;99.90;;;;;;4785562;29;20481;-66
2022/06/02 02:28:42;;;;;;;16.97;12.33;;;7.50;99.90;;;;;;4786515;29;20501;-66
2022/06/02 02:31:49;;;;;;;17.52;13.02;;;7.50;99.90;;;;;;4787358;30;20494;-66
2022/06/02 02:34:25;;;;;;;16.83;12.40;;;7.50;99.90;;;;;;4757650;30;20056;-66
2022/06/02 02:37:03;;;;;;;16.48;12.15;;;7.50;99.90;;;;;;4787946;29;20074;-66
2022/06/02 02:39:45;;;;;;;16.95;12.52;;;7.50;99.90;;;;;;4771415;30;20437;-66
2022/06/02 02:42:34;;;;;;;17.75;13.40;;;7.50;99.90;;;;;;4786619;29;20055;-66
2022/06/02 02:45:27;;;;;;;18.65;13.07;;;7.50;99.90;;;;;;4786711;30;20066;-66
2022/06/02 02:48:04;;;;;;;15.18;12.57;;;7.40;99.90;;;;;;4770250;30;20094;-65
2022/06/02 02:50:41;;;;;;;17.48;12.40;;;7.40;99.90;;;;;;4787404;30;20052;-66
2022/06/02 02:53:54;;;;;;;16.77;12.32;;;7.40;99.90;;;;;;4787662;30;20473;-66
2022/06/02 02:56:29;;;;;;;;;;;7.30;99.90;;;;;;4748698;30;20399;-65
2022/06/02 02:59:13;;;;;;;15.18;11.02;;;7.20;99.90;;;;;;4782502;29;19925;-66
2022/06/02 03:01:54;;;;;;;14.45;11.20;;;7.20;99.90;;;;;;4774339;30;20200;-66
2022/06/02 03:04:42;;;;;;;16.23;11.88;;;7.20;99.90;;;;;;4790055;29;20634;-65
2022/06/02 03:07:09;;;;;;;14.80;11.15;;;7.10;99.90;;;;;;4791014;29;20108;-66
2022/06/02 03:09:35;;;;;;;14.98;11.13;;;7.10;99.90;;;;;;4791122;29;20115;-66
2022/06/02 03:12:39;;;;;;;17.08;12.48;;;7.10;99.90;;;;;;4790354;29;20059;-66
2022/06/02 03:15:40;;;;;;;15.07;12.00;;;7.10;99.90;;;;;;4785061;30;20063;-65
2022/06/02 03:18:45;;;;;;;14.73;11.07;;;7.10;99.90;;;;;;4751664;30;20056;-65
2022/06/02 03:21:32;;;;;;;18.00;12.10;;;7.10;99.90;;;;;;4771259;30;20055;-65
2022/06/02 03:24:28;;;;;;;14.38;11.93;;;7.10;99.90;;;;;;4775779;30;20043;-66
2022/06/02 03:27:03;;;;;;;16.02;11.68;;;7.10;99.90;;;;;;4790314;29;20051;-66
2022/06/02 03:29:45;;;;;;;15.80;12.30;;;7.00;99.90;;;;;;4790764;29;20063;-66
2022/06/02 03:32:31;;;;;;;16.67;12.48;;;7.10;99.90;;;;;;4790101;29;20059;-65
2022/06/02 03:35:12;;;;;;;14.95;11.18;;;7.10;99.90;;;;;;4789557;29;20078;-66
2022/06/02 03:37:49;;;;;;;15.38;11.98;;;7.10;99.90;;;;;;4788902;30;20130;-66
2022/06/02 03:40:36;;;;;;;16.20;12.73;;;7.10;99.90;;;;;;4773987;30;20059;-66
2022/06/02 03:43:20;;;;;;;16.55;13.45;;;7.10;99.90;;;;;;4789258;30;20132;-65
2022/06/02 03:45:56;;;;;;;15.98;12.48;;;7.10;99.90;;;;;;4787364;29;20501;-66
2022/06/02 03:48:31;;;;;;;14.27;11.30;;;7.10;99.90;;;;;;4789753;29;20067;-66
2022/06/02 03:51:18;;;;;;;12.25;10.93;;;7.10;99.90;;;;;;4790142;29;20063;-64
2022/06/02 03:53:47;;;;;;;11.32;9.50;;;7.10;99.90;;;;;;4789006;29;20094;-65
2022/06/02 03:56:54;;;;;;;12.98;10.10;;;7.10;99.90;;;;;;4773951;30;20401;-65
2022/06/02 03:59:41;;;;;;;11.55;9.48;;;7.10;99.90;;;;;;4790001;30;20059;-65
2022/06/02 04:02:15;;;;;;;8.85;7.43;;;7.00;99.90;;;;;;4789464;29;20055;-65
2022/06/02 04:04:52;;;;;;;9.38;8.00;;;7.00;99.90;;;;;;4788825;29;20405;-65
2022/06/02 04:07:24;;;;;;;7.82;7.00;;;7.00;99.90;;;;;;4788384;29;20409;-65
2022/06/02 04:10:06;;;;;;;8.45;7.05;;;7.00;99.90;;;;;;4789656;29;20051;-65
2022/06/02 04:16:07;;;;;;;8.50;7.55;;;7.10;99.90;;;;;;4771915;30;20059;-65
2022/06/02 04:22:12;;;;;;;9.18;8.00;;;7.10;99.90;;;;;;4770305;30;20150;-65
2022/06/02 04:25:00;;;;;;;10.23;8.45;;;7.20;99.90;;;;;;4770337;30;20521;-66
2022/06/02 04:27:42;;;;;;;10.93;8.18;;;7.20;99.90;;;;;;4772501;30;20066;-65
2022/06/02 04:30:32;;;;;;;9.75;8.65;;;7.20;99.90;;;;;;4789958;29;20060;-66
2022/06/02 04:33:15;;;;;;;11.30;9.60;;;7.30;99.90;;;;;;4789026;29;20063;-65
2022/06/02 04:36:05;;;;;;;13.30;10.98;;;7.40;99.90;;;;;;4788084;30;20070;-65
2022/06/02 04:38:44;;;;;;;12.02;10.32;;;7.40;99.90;;;;;;4787579;29;20485;-66
2022/06/02 04:41:22;;;;;;;10.82;9.13;;;7.50;99.90;;;;;;4772742;30;20120;-66
2022/06/02 04:44:03;;;;;;;13.52;10.35;;;7.60;99.90;;;;;;4789160;30;20544;-66
2022/06/02 04:46:54;;;;;;;11.23;9.60;;;7.60;99.90;;;;;;4788991;29;20134;-65
2022/06/02 04:49:41;;;;;;;13.73;10.45;;;7.70;99.90;;;;;;4766954;30;20130;-65
2022/06/02 04:52:22;;;;;;;16.65;11.77;;;7.70;99.90;;;;;;4788183;30;20135;-66
2022/06/02 04:55:03;;;;;;;14.55;11.13;;;7.90;99.90;;;;;;4786061;30;20051;-66
2022/06/02 04:58:03;;;;;;;16.83;11.50;;;7.90;99.90;;;;;;4784780;30;20126;-66
2022/06/02 05:01:04;;;;;;;14.30;11.73;;;8.00;99.90;;;;;;4786690;29;20418;-65
2022/06/02 05:03:44;;;;;;;15.20;12.35;;;8.10;99.90;;;;;;4770916;30;20055;-66
2022/06/02 05:06:32;;;;;;;14.77;11.95;;;8.20;99.90;;;;;;4788961;29;20055;-66
2022/06/02 05:09:26;;;;;;;13.60;11.38;;;8.30;99.90;;;;;;4771764;30;20058;-66
2022/06/02 05:12:13;;;;;;;14.50;11.93;;;8.40;99.90;;;;;;4787554;29;20501;-66
2022/06/02 05:15:01;;;;;;;15.63;11.88;;;8.40;99.90;;;;;;4784001;29;20138;-66
2022/06/02 05:17:39;;;;;;;14.30;11.32;;;8.50;99.90;;;;;;4785226;29;20055;-66
2022/06/02 05:20:58;;;;;;;15.85;12.25;;;8.60;99.90;;;;;;4779899;29;20056;-65
2022/06/02 05:24:08;;;;;;;15.57;11.52;;;8.80;99.90;;;;;;4780768;29;20051;-67
2022/06/02 05:29:52;;;;;;;16.63;12.20;;;9.70;99.90;;;;;;4780405;29;20077;-65
2022/06/02 05:33:15;;;;;;;14.30;11.80;;;10.90;99.90;;;;;;4776700;29;20059;-66
2022/06/02 05:36:31;;;;;;;12.63;10.85;;;12.50;99.90;;;;;;4779660;30;20423;-66
2022/06/02 05:39:36;;;;;;;13.75;11.50;;;13.90;99.90;;;;;;4768139;30;20047;-66
2022/06/02 05:42:23;;;;;;;11.65;9.80;;;15.00;99.90;;;;;;4780385;29;20063;-67
2022/06/02 05:45:38;;;;;;;10.85;9.55;;;15.90;99.90;;;;;;4779535;29;20116;-66
2022/06/02 05:48:18;;;;;;;10.40;9.30;;;16.50;99.90;;;;;;4743384;30;20074;-66
2022/06/02 05:51:10;;;;;;;10.18;9.13;;;17.00;99.90;;;;;;4770218;30;20497;-65
2022/06/02 05:54:05;;;;;;;10.75;9.57;;;17.40;99.90;;;;;;4786738;29;20063;-67
2022/06/02 05:56:53;;;;;;;9.35;7.85;;;17.80;99.90;;;;;;4785780;29;20058;-67
2022/06/02 05:59:28;;;;;;;8.80;7.72;;;17.90;99.90;;;;;;4786165;29;20533;-67
2022/06/02 06:01:57;;;;;;;8.55;7.07;;;18.10;99.90;;;;;;4786627;30;20055;-67
2022/06/02 06:04:53;;;;;;;7.20;6.50;;;18.30;99.90;;;;;;4787243;29;20070;-66
2022/06/02 06:07:43;;;;;;;8.20;7.25;;;18.30;99.90;;;;;;4772740;30;20060;-66
2022/06/02 06:10:20;;;;;;;7.97;7.18;;;18.50;99.90;;;;;;4788370;30;20089;-67
2022/06/02 06:12:56;;;;;;;7.80;7.03;;;18.70;99.90;;;;;;4770502;30;20063;-67
2022/06/02 06:15:35;;;;;;;7.90;7.10;;;18.90;99.90;;;;;;4785865;29;20059;-67
2022/06/02 06:18:34;;;;;;;6.45;5.85;;;18.90;99.90;;;;;;4786061;29;20051;-66
2022/06/02 06:21:21;;;;;;;6.47;5.88;;;19.10;99.90;;;;;;4786349;30;20055;-66
2022/06/02 06:24:05;;;;;;;6.95;5.80;;;19.30;99.90;;;;;;4786399;29;20335;-66
2022/06/02 06:27:07;;;;;;;6.65;5.97;;;19.10;99.90;;;;;;4786749;29;20059;-66
2022/06/02 06:29:56;;;;;;;5.97;4.88;;;19.20;99.90;;;;;;4784470;30;20070;-67
2022/06/02 06:32:51;;;;;;;6.05;5.10;;;19.10;99.90;;;;;;4769364;30;20810;-66
2022/06/02 06:35:38;;;;;;;6.05;4.90;;;18.90;99.90;;;;;;4785956;29;20553;-67
2022/06/02 06:38:12;;;;;;;4.60;4.20;;;17.60;99.90;;;;;;4785896;29;20566;-66
2022/06/02 06:40:50;;;;;;;5.60;5.13;;;16.20;99.90;;;;;;4782614;30;20165;-66
2022/06/02 06:43:30;;;;;;;4.72;4.30;;;15.80;99.90;;;;;;4780573;30;20518;-65
2022/06/02 06:46:09;;;;;;;4.80;4.25;;;15.30;99.90;;;;;;4759295;30;20066;-67
2022/06/02 06:48:41;;;;;;;4.88;4.30;;;14.90;99.90;;;;;;4769744;30;20063;-67
2022/06/02 06:51:53;;;;;;;5.57;3.93;;;14.70;99.90;;;;;;4771300;30;20067;-66
2022/06/02 06:54:43;;;;;;;4.88;4.47;;;14.70;99.90;;;;;;4754677;30;20063;-66
2022/06/02 06:57:40;;;;;;;4.32;3.92;;;14.60;99.90;;;;;;4787336;30;20069;-67
2022/06/02 07:00:19;;;;;;;4.43;3.92;;;14.60;99.90;;;;;;4786269;30;20055;-67
2022/06/02 07:02:56;;;;;;;4.32;3.65;;;14.50;99.90;;;;;;4785795;30;20071;-66
2022/06/02 07:05:42;;;;;;;4.95;3.60;;;14.40;99.90;;;;;;4786832;29;20070;-67
2022/06/02 07:08:26;;;;;;;4.63;3.50;;;14.50;99.90;;;;;;4786879;29;20059;-67
2022/06/02 07:11:01;;;;;;;3.33;3.03;;;14.60;99.90;;;;;;4787481;29;20063;-67
2022/06/02 07:13:46;;;;;;;2.85;2.53;;;14.80;99.90;;;;;;4784521;30;20091;-67
2022/06/02 07:16:23;;;;;;;2.83;2.63;;;14.70;99.90;;;;;;4783103;29;20058;-66
2022/06/02 07:19:16;;;;;;;3.05;2.22;;;14.70;99.90;;;;;;4785095;30;20116;-66
2022/06/02 07:22:05;;;;;;;4.93;3.05;;;14.80;99.90;;;;;;4784841;29;20103;-67
2022/06/02 07:24:55;;;;;;;3.40;2.30;;;14.90;99.90;;;;;;4769419;30;20061;-68
2022/06/02 07:27:38;;;;;;;3.13;2.85;;;15.00;99.90;;;;;;4784542;30;20051;-68
2022/06/02 07:30:16;;;;;;;3.33;2.97;;;15.30;99.90;;;;;;4776431;29;20055;-67
2022/06/02 07:33:12;;;;;;;3.65;2.70;;;15.40;99.90;;;;;;4785659;29;20519;-67
2022/06/02 07:36:26;;;;;;;3.45;2.95;;;15.60;99.90;;;;;;4771586;30;20055;-68
2022/06/02 07:39:19;;;;;;;4.70;2.53;;;15.70;99.90;;;;;;4748128;30;20494;-67
2022/06/02 07:42:03;;;;;;;3.03;2.40;;;15.50;99.90;;;;;;4731617;30;20068;-66
2022/06/02 07:44:45;;;;;;;2.70;2.50;;;15.50;99.90;;;;;;4784544;29;20086;-68
2022/06/02 07:47:29;;;;;;;6.15;2.45;;;15.50;99.90;;;;;;4789941;30;20066;-67
2022/06/02 07:50:19;;;;;;;2.42;1.60;;;15.50;99.90;;;;;;4790379;30;20142;-66
2022/06/02 07:53:13;;;;;;;3.00;2.28;;;15.30;99.90;;;;;;4789249;29;20067;-66
2022/06/02 07:55:57;;;;;;;4.13;2.13;;;15.30;99.90;;;;;;4787203;30;20070;-67
2022/06/02 07:58:51;;;;;;;2.50;2.30;;;15.40;99.90;;;;;;4774016;29;20067;-66
2022/06/02 08:01:16;;;;;;;2.30;2.10;;;15.60;99.90;;;;;;4788455;29;20133;-67
2022/06/02 08:04:21;;;;;;;3.47;1.80;;;15.90;99.90;;;;;;4801306;29;20138;-67
2022/06/02 08:06:54;;;;;;;2.40;2.20;;;15.80;99.90;;;;;;4784377;29;20073;-67
2022/06/02 08:09:39;;;;;;;2.08;1.90;;;15.60;99.90;;;;;;4786789;29;20047;-67
2022/06/02 08:12:07;;;;;;;2.25;1.80;;;15.60;99.90;;;;;;4769578;30;20059;-67
2022/06/02 08:14:59;;;;;;;1.90;1.80;;;15.70;99.90;;;;;;4787540;30;20059;-67
2022/06/02 08:17:53;;;;;;;2.25;1.95;;;16.10;99.90;;;;;;4786055;30;20210;-67
2022/06/02 08:20:42;;;;;;;3.15;1.63;;;16.40;99.90;;;;;;4773456;30;20059;-67
2022/06/02 08:23:18;;;;;;;2.45;1.80;;;16.60;99.90;;;;;;4788965;30;20084;-67
2022/06/02 08:26:16;;;;;;;3.00;1.92;;;16.50;99.90;;;;;;4788221;30;20075;-67
2022/06/02 08:29:00;;;;;;;2.65;1.90;;;16.40;99.90;;;;;;4788925;29;20055;-66
2022/06/02 08:32:10;;;;;;;3.15;2.15;;;16.50;99.90;;;;;;4755442;30;20098;-65
2022/06/02 08:34:36;;;;;;;2.75;1.80;;;16.70;99.90;;;;;;4787658;29;20059;-66
2022/06/02 08:37:18;;;;;;;2.65;1.58;;;16.70;99.90;;;;;;4772955;30;20116;-65
2022/06/02 08:40:14;;;;;;;2.17;1.92;;;16.50;99.90;;;;;;4789439;29;20481;-65
2022/06/02 08:42:54;;;;;;;1.60;1.50;;;16.30;99.90;;;;;;4789398;30;20066;-65
2022/06/02 08:45:50;;;;;;;1.65;1.40;;;16.30;99.90;;;;;;4772629;30;20075;-66
2022/06/02 08:48:46;;;;;;;2.30;1.58;;;16.60;99.90;;;;;;4788162;29;20130;-66
2022/06/02 08:51:30;;;;;;;1.83;1.70;;;16.70;99.90;;;;;;4771415;30;20134;-66
2022/06/02 08:54:30;;;;;;;3.20;1.80;;;16.90;99.90;;;;;;4769957;30;20059;-65
2022/06/02 08:57:34;;;;;;;3.03;1.75;;;17.20;99.90;;;;;;4788924;30;20108;-66
2022/06/02 09:00:22;;;;;;;3.28;1.85;;;17.20;99.90;;;;;;4787402;29;20070;-65
2022/06/02 09:03:20;;;;;;;3.35;1.58;;;17.00;99.90;;;;;;4788426;30;20055;-65
2022/06/02 09:05:48;;;;;;;2.00;1.67;;;17.00;99.90;;;;;;4788524;30;20501;-65
2022/06/02 09:08:38;;;;;;;1.98;1.73;;;17.10;99.90;;;;;;4788933;30;20119;-65
2022/06/02 09:12:00;;;;;;;9.85;2.88;;;17.10;99.90;;;;;;4788768;30;20069;-65
2022/06/02 09:14:37;;;;;;;9.40;2.85;;;17.10;99.90;;;;;;4758006;30;20066;-65
2022/06/02 09:17:07;;;;;;;3.92;1.92;;;17.10;99.90;;;;;;4738431;30;20072;-66
2022/06/02 09:19:35;;;;;;;1.85;1.42;;;17.50;99.90;;;;;;4772215;30;20103;-65
2022/06/02 09:22:37;;;;;;;5.32;1.73;;;17.50;99.90;;;;;;4788658;30;20059;-65
2022/06/02 09:25:21;;;;;;;7.15;1.80;;;17.50;99.90;;;;;;4772697;30;20066;-66
2022/06/02 09:28:18;;;;;;;7.82;2.25;;;17.30;99.90;;;;;;4771976;30;20476;-66
2022/06/02 09:30:58;;;;;;;10.88;2.33;;;17.20;99.90;;;;;;4772911;30;20575;-66
2022/06/02 09:33:47;;;;;;;3.30;1.50;;;17.30;99.90;;;;;;4769234;30;20640;-65
2022/06/02 09:36:32;;;;;;;9.93;2.38;;;17.30;99.90;;;;;;4770484;30;20082;-66
2022/06/02 09:38:57;;;;;;;2.53;1.70;;;17.40;99.90;;;;;;4781175;30;20135;-66
2022/06/02 09:41:29;;;;;;;5.75;1.80;;;17.60;99.90;;;;;;4788526;29;20147;-66
2022/06/02 09:44:04;;;;;;;3.85;1.73;;;17.90;99.90;;;;;;4788242;29;20062;-66
2022/06/02 09:47:13;;;;;;;2.65;1.60;;;18.00;99.90;;;;;;4771774;30;20047;-66
2022/06/02 09:50:12;;;;;;;1.75;1.42;;;17.80;99.90;;;;;;4787748;30;20047;-65
2022/06/02 09:52:53;;;;;;;3.35;1.40;;;17.70;99.90;;;;;;4787427;30;20051;-66
2022/06/02 09:55:39;;;;;;;2.42;1.33;;;17.60;99.90;;;;;;4788369;29;20059;-66
2022/06/02 09:58:16;;;;;;;3.13;1.30;;;17.30;99.90;;;;;;4786684;29;20408;-66
2022/06/02 10:00:57;;;;;;;1.30;1.20;;;17.20;99.90;;;;;;4788316;30;20059;-67
2022/06/02 10:03:49;;;;;;;1.70;1.40;;;17.30;99.90;;;;;;4787897;29;20063;-67
2022/06/02 10:06:27;;;;;;;1.40;1.30;;;17.50;99.90;;;;;;4769156;29;20413;-67
2022/06/02 10:09:14;;;;;;;1.30;1.20;;;17.80;99.90;;;;;;4768927;30;20075;-67
2022/06/02 10:15:48;;;;;;;1.40;1.30;;;18.10;99.90;;;;;;4745305;30;20051;-67
2022/06/02 10:18:32;;;;;;;2.60;1.30;;;17.80;99.90;;;;;;4749773;30;20150;-66
2022/06/02 10:21:25;;;;;;;3.60;1.70;;;17.70;99.90;;;;;;4755144;30;20060;-67
2022/06/02 10:23:57;;;;;;;2.72;1.50;;;17.90;99.90;;;;;;4787211;29;20063;-68
2022/06/02 10:26:36;;;;;;;1.33;1.23;;;18.20;99.90;;;;;;4784815;30;20466;-68
2022/06/02 10:29:43;;;;;;;2.00;1.48;;;18.60;99.90;;;;;;4783257;30;20535;-67
2022/06/02 10:32:30;;;;;;;5.13;1.70;;;18.70;99.90;;;;;;4767899;30;20230;-67
2022/06/02 10:35:29;;;;;;;2.47;1.58;;;18.60;99.90;;;;;;4784097;30;20062;-67
2022/06/02 10:38:09;;;;;;;6.47;1.60;;;18.30;99.90;;;;;;4787464;29;20063;-67
2022/06/02 10:40:48;;;;;;;2.28;1.63;;;18.30;99.90;;;;;;4787592;30;20059;-67
2022/06/02 10:43:33;;;;;;;1.88;1.50;;;18.40;99.90;;;;;;4770549;30;20059;-67
2022/06/02 10:46:29;;;;;;;1.70;1.60;;;18.50;99.90;;;;;;4767197;30;20378;-67
2022/06/02 10:49:12;;;;;;;1.45;1.35;;;18.50;99.90;;;;;;4769709;29;20065;-67
2022/06/02 10:51:52;;;;;;;1.77;1.50;;;18.30;99.90;;;;;;4787303;30;20058;-67
2022/06/02 10:54:40;;;;;;;2.00;1.33;;;18.10;99.90;;;;;;4783058;29;20051;-67
2022/06/02 10:57:30;;;;;;;1.70;1.55;;;18.00;99.90;;;;;;4783449;30;20059;-66
2022/06/02 11:00:05;;;;;;;1.55;1.45;;;17.60;99.90;;;;;;4785750;30;20130;-67
2022/06/02 11:02:58;;;;;;;2.72;1.60;;;17.30;99.90;;;;;;4767975;30;20139;-66
2022/06/02 11:06:11;;;;;;;1.40;1.30;;;17.20;99.90;;;;;;4782235;29;20051;-67
2022/06/02 11:09:06;;;;;;;2.25;1.33;;;17.10;99.90;;;;;;4786070;30;20461;-66
2022/06/02 11:12:07;;;;;;;1.95;1.50;;;17.30;99.90;;;;;;4769381;30;20532;-67
2022/06/02 11:14:54;;;;;;;1.98;1.42;;;17.70;99.90;;;;;;4714566;30;20069;-66
2022/06/02 11:18:02;;;;;;;2.15;1.65;;;18.10;99.90;;;;;;4782234;30;20113;-66
2022/06/02 11:21:00;;;;;;;2.10;1.60;;;18.30;99.90;;;;;;4784699;30;20201;-67
2022/06/02 11:23:49;;;;;;;1.50;1.40;;;18.50;99.90;;;;;;4783101;29;20067;-66
2022/06/02 11:26:39;;;;;;;3.13;1.52;;;18.50;99.90;;;;;;4791009;30;20415;-66
2022/06/02 11:29:30;;;;;;;3.28;1.70;;;18.40;99.90;;;;;;4774803;30;20058;-67
2022/06/02 11:32:41;;;;;;;2.78;1.52;;;18.20;99.90;;;;;;4789353;30;20059;-67
2022/06/02 11:35:09;;;;;;;1.60;1.50;;;18.00;99.90;;;;;;4776220;29;20055;-66
2022/06/02 11:38:01;;;;;;;1.80;1.45;;;18.00;99.90;;;;;;4790748;30;20145;-67
2022/06/02 11:40:41;;;;;;;1.63;1.40;;;17.80;99.90;;;;;;4790598;30;20063;-67
2022/06/02 11:43:16;;;;;;;1.77;1.52;;;17.70;99.90;;;;;;4788541;30;20070;-67
2022/06/02 11:46:17;;;;;;;1.88;1.60;;;17.80;99.90;;;;;;4790117;30;20062;-67
2022/06/02 11:49:05;;;;;;;1.88;1.50;;;18.00;99.90;;;;;;4751406;30;20128;-67
2022/06/02 11:51:50;;;;;;;2.10;1.20;;;18.20;99.90;;;;;;4770703;30;20402;-68
2022/06/02 11:54:46;;;;;;;2.08;1.63;;;18.30;99.90;;;;;;4788258;29;20051;-68
2022/06/02 11:57:35;;;;;;;1.33;1.10;;;18.50;99.90;;;;;;4772101;30;20121;-67
2022/06/02 12:00:34;;;;;;;1.83;1.20;;;18.70;99.80;;;;;;4788093;30;20090;-68
2022/06/02 12:03:18;;;;;;;2.53;1.60;;;18.60;96.50;;;;;;4789594;29;20578;-67
2022/06/02 12:05:50;;;;;;;1.67;1.30;;;18.60;99.90;;;;;;4788671;30;20162;-66
2022/06/02 12:08:28;;;;;;;1.83;1.50;;;18.60;99.90;;;;;;4790068;30;20055;-67
2022/06/02 12:11:21;;;;;;;1.42;1.33;;;18.70;99.90;;;;;;4788870;30;20059;-67
2022/06/02 12:14:02;;;;;;;1.40;1.30;;;18.80;99.90;;;;;;4788943;30;20134;-67
2022/06/02 12:16:39;;;;;;;1.30;1.20;;;19.00;99.90;;;;;;4786648;30;20063;-67
2022/06/02 12:19:44;;;;;;;1.30;1.17;;;19.30;99.90;;;;;;4788705;30;20063;-67
2022/06/02 12:22:34;;;;;;;1.30;1.20;;;19.40;99.90;;;;;;4787763;29;20116;-68
2022/06/02 12:25:33;;;;;;;2.15;0.98;;;19.50;99.90;;;;;;4788721;30;20101;-67
2022/06/02 12:28:34;;;;;;;1.42;1.02;;;19.70;99.90;;;;;;4770503;30;20054;-66
2022/06/02 12:31:30;;;;;;;2.17;1.20;;;19.80;94.30;;;;;;4786741;30;20054;-66
2022/06/02 12:34:18;;;;;;;2.47;1.27;;;19.90;99.90;;;;;;4787685;29;20084;-67
2022/06/02 12:37:05;;;;;;;2.55;1.30;;;19.60;99.90;;;;;;4755300;30;20063;-67
2022/06/02 12:43:33;;;;;;;1.88;1.25;;;19.30;92.40;;;;;;4770163;30;20063;-67
2022/06/02 12:46:05;;;;;;;1.80;1.35;;;19.20;99.90;;;;;;4770804;30;20067;-66
2022/06/02 12:49:09;;;;;;;2.05;1.20;;;19.20;99.90;;;;;;4781178;29;20059;-66
2022/06/02 12:51:58;;;;;;;2.17;1.42;;;19.30;99.90;;;;;;4772383;29;20055;-67
2022/06/02 12:55:01;;;;;;;2.88;1.35;;;19.30;99.90;;;;;;4788398;29;20083;-66
2022/06/02 12:57:55;;;;;;;1.85;1.30;;;19.40;99.90;;;;;;4788225;30;20071;-67
2022/06/02 13:00:48;;;;;;;2.10;1.40;;;19.40;98.50;;;;;;4789043;30;20094;-67
2022/06/02 13:03:17;;;;;;;2.75;1.30;;;19.50;99.90;;;;;;4785985;29;20128;-66
2022/06/02 13:06:20;;;;;;;2.33;1.10;;;19.70;99.90;;;;;;4772813;30;20098;-66
2022/06/02 13:08:55;;;;;;;1.63;1.10;;;19.90;99.90;;;;;;4788807;29;20120;-66
2022/06/02 13:11:44;;;;;;;1.33;1.20;;;20.10;93.80;;;;;;4773199;29;20150;-67
2022/06/02 13:14:28;;;;;;;1.45;1.10;;;20.10;99.90;;;;;;4783335;29;20070;-66
2022/06/02 13:17:30;;;;;;;2.00;1.30;;;20.30;99.90;;;;;;4772165;30;20410;-66
2022/06/02 13:20:14;;;;;;;1.75;1.50;;;20.60;82.70;;;;;;4788561;30;20122;-66
2022/06/02 13:22:54;;;;;;;1.90;1.00;;;20.60;72.70;;;;;;4787285;30;20112;-66
2022/06/02 13:25:47;;;;;;;1.67;1.20;;;20.50;79.40;;;;;;4772345;30;20493;-67
2022/06/02 13:28:49;;;;;;;1.30;1.02;;;20.30;78.40;;;;;;4770885;30;20056;-65
2022/06/02 13:31:36;;;;;;;3.13;1.30;;;20.20;92.20;;;;;;4783100;30;20098;-66
2022/06/02 13:34:39;;;;;;;1.30;1.10;;;20.20;93.20;;;;;;4788439;30;20408;-66
2022/06/02 13:37:26;;;;;;;1.40;1.27;;;20.20;95.00;;;;;;4772648;30;20504;-66
2022/06/02 13:40:10;;;;;;;1.08;1.00;;;20.20;89.00;;;;;;4787292;29;20112;-67
2022/06/02 13:42:42;;;;;;;1.63;1.40;;;20.30;98.60;;;;;;4785829;30;20059;-66
2022/06/02 13:45:17;;;;;;;3.63;1.30;;;20.40;96.10;;;;;;4788522;30;20063;-66
2022/06/02 13:48:20;;;;;;;1.25;1.00;;;20.50;94.10;;;;;;4787746;30;20071;-66
2022/06/02 13:51:23;;;;;;;1.35;1.20;;;20.50;72.20;;;;;;4787901;30;20465;-66
2022/06/02 13:57:31;;;;;;;2.35;1.10;;;20.40;85.10;;;;;;4784847;30;20066;-65
2022/06/02 14:00:20;;;;;;;2.55;1.08;;;20.30;86.80;;;;;;4787249;30;20402;-66
2022/06/02 14:02:58;;;;;;;1.27;1.17;;;20.00;82.80;;;;;;4785290;30;20051;-65
2022/06/02 14:05:48;;;;;;;1.33;1.20;;;19.90;97.40;;;;;;4787771;30;20059;-65
2022/06/02 14:08:31;;;;;;;2.08;1.10;;;19.80;91.60;;;;;;4784920;29;20063;-65
2022/06/02 14:11:20;;;;;;;2.85;1.30;;;20.00;87.00;;;;;;4788110;30;20181;-65
2022/06/02 14:14:11;;;;;;;2.10;1.15;;;20.10;84.00;;;;;;4787704;30;20553;-66
2022/06/02 14:16:55;;;;;;;1.20;1.10;;;20.20;83.00;;;;;;4787225;30;20063;-66
2022/06/02 14:19:34;;;;;;;1.80;1.30;;;20.40;91.90;;;;;;4788089;30;20094;-66
2022/06/02 14:22:26;;;;;;;2.05;1.40;;;20.50;82.30;;;;;;4786511;30;20455;-65
2022/06/02 14:25:17;;;;;;;1.50;1.00;;;20.60;74.10;;;;;;4786105;30;20143;-66
2022/06/02 14:28:09;;;;;;;1.00;0.90;;;20.60;75.40;;;;;;4787008;29;20063;-66
2022/06/02 14:30:43;;;;;;;1.30;0.90;;;20.40;84.40;;;;;;4771708;30;20059;-65
2022/06/02 14:33:28;;;;;;;1.50;0.95;;;20.20;79.90;;;;;;4771526;30;20523;-66
2022/06/02 14:36:12;;;;;;;3.15;1.00;;;20.00;81.30;;;;;;4787689;30;20059;-66
2022/06/02 14:39:12;;;;;;;1.17;1.00;;;19.90;83.50;;;;;;4787919;30;20070;-65
2022/06/02 14:42:23;;;;;;;2.28;1.20;;;19.80;69.30;;;;;;4786609;30;20063;-65
2022/06/02 14:45:24;;;;;;;1.83;1.35;;;19.80;74.00;;;;;;4785878;30;20493;-66
2022/06/02 14:48:02;;;;;;;1.80;1.27;;;20.00;84.70;;;;;;4786744;30;20454;-67
2022/06/02 14:50:48;;;;;;;2.03;1.30;;;20.10;88.00;;;;;;4788350;29;20212;-68